sensor_id;sensor_type;location;lat;lon;timestamp;P1;durP1;ratioP1;P2;durP2;ratioP2
76856;SDS011;66179;44.686;37.628;2023-02-28T00:00:24;19.33;;;9.17;;
76856;SDS011;66179;44.686;37.628;2023-02-28T00:02:51;24.40;;;9.68;;
76856;SDS011;66179;44.686;37.628;2023-02-28T00:05:20;17.25;;;9.48;;
76856;SDS011;66179;44.686;37.628;2023-02-28T00:07:49;16.65;;;8.48;;
76856;SDS011;66179;44.686;37.628;2023-02-28T00:10:18;16.55;;;9.18;;
76856;SDS011;66179;44.686;37.628;2023-02-28T00:12:47;18.13;;;9.17;;
76856;SDS011;66179;44.686;37.628;2023-02-28T00:15:14;18.10;;;9.05;;
76856;SDS011;66179;44.686;37.628;2023-02-28T00:17:42;21.23;;;9.55;;
76856;SDS011;66179;44.686;37.628;2023-02-28T00:20:09;15.90;;;8.35;;
76856;SDS011;66179;44.686;37.628;2023-02-28T00:22:39;19.05;;;9.15;;
76856;SDS011;66179;44.686;37.628;2023-02-28T00:25:08;19.80;;;9.33;;
76856;SDS011;66179;44.686;37.628;2023-02-28T00:27:36;19.30;;;9.38;;
76856;SDS011;66179;44.686;37.628;2023-02-28T00:30:05;18.15;;;9.00;;
76856;SDS011;66179;44.686;37.628;2023-02-28T00:32:34;20.33;;;7.78;;
76856;SDS011;66179;44.686;37.628;2023-02-28T00:35:02;17.85;;;8.45;;
76856;SDS011;66179;44.686;37.628;2023-02-28T00:37:29;17.73;;;8.53;;
76856;SDS011;66179;44.686;37.628;2023-02-28T00:39:57;17.35;;;8.13;;
76856;SDS011;66179;44.686;37.628;2023-02-28T00:42:24;19.20;;;8.35;;
76856;SDS011;66179;44.686;37.628;2023-02-28T00:44:51;19.10;;;8.63;;
76856;SDS011;66179;44.686;37.628;2023-02-28T00:47:18;16.00;;;8.18;;
76856;SDS011;66179;44.686;37.628;2023-02-28T00:49:45;17.63;;;8.67;;
76856;SDS011;66179;44.686;37.628;2023-02-28T00:52:12;16.75;;;8.25;;
76856;SDS011;66179;44.686;37.628;2023-02-28T00:54:39;17.77;;;8.85;;
76856;SDS011;66179;44.686;37.628;2023-02-28T00:57:07;17.30;;;8.30;;
76856;SDS011;66179;44.686;37.628;2023-02-28T00:59:34;19.05;;;9.23;;
76856;SDS011;66179;44.686;37.628;2023-02-28T01:02:04;17.53;;;8.90;;
76856;SDS011;66179;44.686;37.628;2023-02-28T01:04:31;23.40;;;9.55;;
76856;SDS011;66179;44.686;37.628;2023-02-28T01:07:00;20.05;;;8.57;;
76856;SDS011;66179;44.686;37.628;2023-02-28T01:09:29;20.95;;;9.60;;
76856;SDS011;66179;44.686;37.628;2023-02-28T01:11:56;20.33;;;9.48;;
76856;SDS011;66179;44.686;37.628;2023-02-28T01:14:23;18.97;;;8.80;;
76856;SDS011;66179;44.686;37.628;2023-02-28T01:16:50;21.30;;;9.60;;
76856;SDS011;66179;44.686;37.628;2023-02-28T01:19:18;18.60;;;9.43;;
76856;SDS011;66179;44.686;37.628;2023-02-28T01:21:46;16.80;;;8.43;;
76856;SDS011;66179;44.686;37.628;2023-02-28T01:24:13;19.90;;;8.95;;
76856;SDS011;66179;44.686;37.628;2023-02-28T01:26:40;19.40;;;8.53;;
76856;SDS011;66179;44.686;37.628;2023-02-28T01:29:07;20.77;;;8.68;;
76856;SDS011;66179;44.686;37.628;2023-02-28T01:31:34;17.35;;;8.30;;
76856;SDS011;66179;44.686;37.628;2023-02-28T01:34:01;16.70;;;7.88;;
76856;SDS011;66179;44.686;37.628;2023-02-28T01:36:29;17.58;;;8.20;;
76856;SDS011;66179;44.686;37.628;2023-02-28T01:38:56;16.43;;;8.43;;
76856;SDS011;66179;44.686;37.628;2023-02-28T01:41:24;15.50;;;8.13;;
76856;SDS011;66179;44.686;37.628;2023-02-28T01:43:57;17.20;;;8.27;;
76856;SDS011;66179;44.686;37.628;2023-02-28T01:46:33;15.73;;;7.82;;
76856;SDS011;66179;44.686;37.628;2023-02-28T01:49:14;15.32;;;7.68;;
76856;SDS011;66179;44.686;37.628;2023-02-28T01:51:44;16.40;;;7.70;;
76856;SDS011;66179;44.686;37.628;2023-02-28T01:54:18;16.30;;;7.35;;
76856;SDS011;66179;44.686;37.628;2023-02-28T01:56:50;15.80;;;8.13;;
76856;SDS011;66179;44.686;37.628;2023-02-28T01:59:22;15.55;;;7.95;;
76856;SDS011;66179;44.686;37.628;2023-02-28T02:01:53;17.05;;;7.68;;
76856;SDS011;66179;44.686;37.628;2023-02-28T02:04:21;14.03;;;7.57;;
76856;SDS011;66179;44.686;37.628;2023-02-28T02:06:51;16.00;;;7.80;;
76856;SDS011;66179;44.686;37.628;2023-02-28T02:09:18;18.10;;;8.23;;
76856;SDS011;66179;44.686;37.628;2023-02-28T02:11:45;15.55;;;7.78;;
76856;SDS011;66179;44.686;37.628;2023-02-28T02:14:30;15.90;;;7.88;;
76856;SDS011;66179;44.686;37.628;2023-02-28T02:17:28;15.77;;;7.43;;
76856;SDS011;66179;44.686;37.628;2023-02-28T02:25:51;15.57;;;7.47;;
76856;SDS011;66179;44.686;37.628;2023-02-28T02:31:15;14.80;;;7.77;;
76856;SDS011;66179;44.686;37.628;2023-02-28T02:36:38;15.15;;;7.50;;
76856;SDS011;66179;44.686;37.628;2023-02-28T02:39:18;17.95;;;8.32;;
76856;SDS011;66179;44.686;37.628;2023-02-28T02:41:55;19.05;;;8.45;;
76856;SDS011;66179;44.686;37.628;2023-02-28T02:44:28;15.13;;;7.00;;
76856;SDS011;66179;44.686;37.628;2023-02-28T02:47:02;15.20;;;7.18;;
76856;SDS011;66179;44.686;37.628;2023-02-28T02:49:35;18.60;;;8.02;;
76856;SDS011;66179;44.686;37.628;2023-02-28T02:52:04;17.55;;;7.78;;
76856;SDS011;66179;44.686;37.628;2023-02-28T02:54:38;19.88;;;9.00;;
76856;SDS011;66179;44.686;37.628;2023-02-28T02:57:23;17.37;;;8.20;;
76856;SDS011;66179;44.686;37.628;2023-02-28T02:59:56;16.58;;;7.63;;
76856;SDS011;66179;44.686;37.628;2023-02-28T03:02:24;16.52;;;8.20;;
76856;SDS011;66179;44.686;37.628;2023-02-28T03:04:56;17.10;;;8.15;;
76856;SDS011;66179;44.686;37.628;2023-02-28T03:07:27;18.52;;;8.45;;
76856;SDS011;66179;44.686;37.628;2023-02-28T03:09:55;17.07;;;8.60;;
76856;SDS011;66179;44.686;37.628;2023-02-28T03:12:27;20.73;;;8.43;;
76856;SDS011;66179;44.686;37.628;2023-02-28T03:20:57;16.58;;;7.53;;
76856;SDS011;66179;44.686;37.628;2023-02-28T03:26:18;19.02;;;8.55;;
76856;SDS011;66179;44.686;37.628;2023-02-28T03:33:48;15.80;;;7.60;;
76856;SDS011;66179;44.686;37.628;2023-02-28T03:36:25;18.70;;;8.13;;
76856;SDS011;66179;44.686;37.628;2023-02-28T03:38:59;16.33;;;7.90;;
76856;SDS011;66179;44.686;37.628;2023-02-28T03:41:36;19.30;;;8.52;;
76856;SDS011;66179;44.686;37.628;2023-02-28T03:44:13;16.50;;;7.95;;
76856;SDS011;66179;44.686;37.628;2023-02-28T03:46:46;17.42;;;8.48;;
76856;SDS011;66179;44.686;37.628;2023-02-28T03:49:27;15.53;;;7.80;;
76856;SDS011;66179;44.686;37.628;2023-02-28T03:51:58;15.07;;;7.43;;
76856;SDS011;66179;44.686;37.628;2023-02-28T03:54:30;17.23;;;7.68;;
76856;SDS011;66179;44.686;37.628;2023-02-28T03:59:30;17.95;;;7.68;;
76856;SDS011;66179;44.686;37.628;2023-02-28T04:01:59;14.80;;;8.13;;
76856;SDS011;66179;44.686;37.628;2023-02-28T04:04:26;16.83;;;7.82;;
76856;SDS011;66179;44.686;37.628;2023-02-28T04:06:53;17.15;;;7.90;;
76856;SDS011;66179;44.686;37.628;2023-02-28T04:09:28;15.15;;;8.07;;
76856;SDS011;66179;44.686;37.628;2023-02-28T04:11:55;18.58;;;8.55;;
76856;SDS011;66179;44.686;37.628;2023-02-28T04:14:22;19.83;;;8.67;;
76856;SDS011;66179;44.686;37.628;2023-02-28T04:16:49;17.73;;;8.20;;
76856;SDS011;66179;44.686;37.628;2023-02-28T04:19:17;16.63;;;8.43;;
76856;SDS011;66179;44.686;37.628;2023-02-28T04:21:45;19.48;;;8.40;;
76856;SDS011;66179;44.686;37.628;2023-02-28T04:24:14;17.15;;;8.18;;
76856;SDS011;66179;44.686;37.628;2023-02-28T04:26:43;15.40;;;8.10;;
76856;SDS011;66179;44.686;37.628;2023-02-28T04:29:18;20.95;;;8.68;;
76856;SDS011;66179;44.686;37.628;2023-02-28T04:31:47;19.10;;;10.82;;
76856;SDS011;66179;44.686;37.628;2023-02-28T04:34:14;26.20;;;15.35;;
76856;SDS011;66179;44.686;37.628;2023-02-28T04:36:41;27.20;;;15.70;;
76856;SDS011;66179;44.686;37.628;2023-02-28T04:39:08;28.80;;;17.20;;
76856;SDS011;66179;44.686;37.628;2023-02-28T04:41:35;30.30;;;18.27;;
76856;SDS011;66179;44.686;37.628;2023-02-28T04:44:02;32.03;;;19.15;;
76856;SDS011;66179;44.686;37.628;2023-02-28T04:46:29;34.03;;;19.17;;
76856;SDS011;66179;44.686;37.628;2023-02-28T04:48:56;35.40;;;17.13;;
76856;SDS011;66179;44.686;37.628;2023-02-28T04:51:24;31.80;;;17.60;;
76856;SDS011;66179;44.686;37.628;2023-02-28T04:53:51;32.53;;;17.33;;
76856;SDS011;66179;44.686;37.628;2023-02-28T04:56:18;31.80;;;16.80;;
76856;SDS011;66179;44.686;37.628;2023-02-28T04:58:45;35.53;;;17.60;;
76856;SDS011;66179;44.686;37.628;2023-02-28T05:01:17;29.02;;;14.68;;
76856;SDS011;66179;44.686;37.628;2023-02-28T05:03:45;31.20;;;14.57;;
76856;SDS011;66179;44.686;37.628;2023-02-28T05:06:12;27.13;;;14.45;;
76856;SDS011;66179;44.686;37.628;2023-02-28T05:08:40;23.33;;;13.35;;
76856;SDS011;66179;44.686;37.628;2023-02-28T05:11:15;27.52;;;12.45;;
76856;SDS011;66179;44.686;37.628;2023-02-28T05:13:43;24.52;;;13.20;;
76856;SDS011;66179;44.686;37.628;2023-02-28T05:16:10;24.33;;;12.20;;
76856;SDS011;66179;44.686;37.628;2023-02-28T05:18:37;27.15;;;12.77;;
76856;SDS011;66179;44.686;37.628;2023-02-28T05:21:05;21.45;;;11.02;;
76856;SDS011;66179;44.686;37.628;2023-02-28T05:23:32;21.33;;;10.95;;
76856;SDS011;66179;44.686;37.628;2023-02-28T05:25:59;20.83;;;10.63;;
76856;SDS011;66179;44.686;37.628;2023-02-28T05:28:26;21.37;;;10.17;;
76856;SDS011;66179;44.686;37.628;2023-02-28T05:30:52;20.88;;;10.77;;
76856;SDS011;66179;44.686;37.628;2023-02-28T05:33:19;26.55;;;14.98;;
76856;SDS011;66179;44.686;37.628;2023-02-28T05:35:46;28.60;;;14.90;;
76856;SDS011;66179;44.686;37.628;2023-02-28T05:38:13;29.48;;;14.90;;
76856;SDS011;66179;44.686;37.628;2023-02-28T05:40:40;24.83;;;13.00;;
76856;SDS011;66179;44.686;37.628;2023-02-28T05:43:09;26.75;;;13.75;;
76856;SDS011;66179;44.686;37.628;2023-02-28T05:45:37;29.40;;;14.63;;
76856;SDS011;66179;44.686;37.628;2023-02-28T05:48:04;29.35;;;13.98;;
76856;SDS011;66179;44.686;37.628;2023-02-28T05:50:31;28.85;;;13.95;;
76856;SDS011;66179;44.686;37.628;2023-02-28T05:52:58;28.83;;;13.10;;
76856;SDS011;66179;44.686;37.628;2023-02-28T05:55:25;25.02;;;11.90;;
76856;SDS011;66179;44.686;37.628;2023-02-28T05:57:52;23.70;;;10.50;;
76856;SDS011;66179;44.686;37.628;2023-02-28T06:00:18;19.40;;;9.93;;
76856;SDS011;66179;44.686;37.628;2023-02-28T06:02:46;18.92;;;9.73;;
76856;SDS011;66179;44.686;37.628;2023-02-28T06:05:13;28.43;;;11.10;;
76856;SDS011;66179;44.686;37.628;2023-02-28T06:07:42;23.92;;;12.13;;
76856;SDS011;66179;44.686;37.628;2023-02-28T06:10:10;24.05;;;11.52;;
76856;SDS011;66179;44.686;37.628;2023-02-28T06:12:38;23.23;;;11.43;;
76856;SDS011;66179;44.686;37.628;2023-02-28T06:15:05;28.55;;;13.65;;
76856;SDS011;66179;44.686;37.628;2023-02-28T06:17:32;28.27;;;14.60;;
76856;SDS011;66179;44.686;37.628;2023-02-28T06:19:59;27.00;;;13.25;;
76856;SDS011;66179;44.686;37.628;2023-02-28T06:22:26;26.95;;;12.80;;
76856;SDS011;66179;44.686;37.628;2023-02-28T06:24:53;26.10;;;12.23;;
76856;SDS011;66179;44.686;37.628;2023-02-28T06:27:20;26.30;;;12.07;;
76856;SDS011;66179;44.686;37.628;2023-02-28T06:29:48;25.70;;;11.13;;
76856;SDS011;66179;44.686;37.628;2023-02-28T06:32:14;27.27;;;12.23;;
76856;SDS011;66179;44.686;37.628;2023-02-28T06:34:41;30.20;;;11.88;;
76856;SDS011;66179;44.686;37.628;2023-02-28T06:37:08;28.08;;;11.48;;
76856;SDS011;66179;44.686;37.628;2023-02-28T06:39:35;28.42;;;12.27;;
76856;SDS011;66179;44.686;37.628;2023-02-28T06:42:01;27.33;;;12.07;;
76856;SDS011;66179;44.686;37.628;2023-02-28T06:44:28;28.55;;;12.15;;
76856;SDS011;66179;44.686;37.628;2023-02-28T06:47:01;24.58;;;11.80;;
76856;SDS011;66179;44.686;37.628;2023-02-28T06:49:30;24.42;;;12.38;;
76856;SDS011;66179;44.686;37.628;2023-02-28T06:51:57;25.65;;;11.82;;
76856;SDS011;66179;44.686;37.628;2023-02-28T06:54:24;27.40;;;12.27;;
76856;SDS011;66179;44.686;37.628;2023-02-28T06:56:51;26.38;;;11.25;;
76856;SDS011;66179;44.686;37.628;2023-02-28T06:59:20;27.20;;;12.20;;
76856;SDS011;66179;44.686;37.628;2023-02-28T07:01:46;26.42;;;11.63;;
76856;SDS011;66179;44.686;37.628;2023-02-28T07:04:13;29.77;;;11.57;;
76856;SDS011;66179;44.686;37.628;2023-02-28T07:06:40;21.47;;;11.27;;
76856;SDS011;66179;44.686;37.628;2023-02-28T07:09:07;25.90;;;11.13;;
76856;SDS011;66179;44.686;37.628;2023-02-28T07:11:34;31.27;;;11.00;;
76856;SDS011;66179;44.686;37.628;2023-02-28T07:14:01;22.33;;;10.20;;
76856;SDS011;66179;44.686;37.628;2023-02-28T07:16:28;25.73;;;10.00;;
76856;SDS011;66179;44.686;37.628;2023-02-28T07:18:55;22.87;;;9.17;;
76856;SDS011;66179;44.686;37.628;2023-02-28T07:21:21;22.23;;;10.30;;
76856;SDS011;66179;44.686;37.628;2023-02-28T07:23:49;26.55;;;9.80;;
76856;SDS011;66179;44.686;37.628;2023-02-28T07:26:16;29.40;;;9.82;;
76856;SDS011;66179;44.686;37.628;2023-02-28T07:28:45;16.77;;;7.15;;
76856;SDS011;66179;44.686;37.628;2023-02-28T07:31:14;12.90;;;5.73;;
76856;SDS011;66179;44.686;37.628;2023-02-28T07:33:41;10.95;;;5.40;;
76856;SDS011;66179;44.686;37.628;2023-02-28T07:36:09;11.38;;;5.60;;
76856;SDS011;66179;44.686;37.628;2023-02-28T07:38:41;12.90;;;5.55;;
76856;SDS011;66179;44.686;37.628;2023-02-28T07:41:09;10.43;;;5.80;;
76856;SDS011;66179;44.686;37.628;2023-02-28T07:43:36;12.77;;;7.03;;
76856;SDS011;66179;44.686;37.628;2023-02-28T07:46:04;15.23;;;6.15;;
76856;SDS011;66179;44.686;37.628;2023-02-28T07:48:33;10.40;;;5.60;;
76856;SDS011;66179;44.686;37.628;2023-02-28T07:51:00;10.75;;;5.90;;
76856;SDS011;66179;44.686;37.628;2023-02-28T07:53:27;13.73;;;5.82;;
76856;SDS011;66179;44.686;37.628;2023-02-28T07:55:58;11.87;;;6.10;;
76856;SDS011;66179;44.686;37.628;2023-02-28T07:58:27;11.50;;;5.72;;
76856;SDS011;66179;44.686;37.628;2023-02-28T08:00:55;12.13;;;5.72;;
76856;SDS011;66179;44.686;37.628;2023-02-28T08:03:23;13.05;;;5.53;;
76856;SDS011;66179;44.686;37.628;2023-02-28T08:05:50;12.63;;;5.60;;
76856;SDS011;66179;44.686;37.628;2023-02-28T08:08:18;13.00;;;5.70;;
76856;SDS011;66179;44.686;37.628;2023-02-28T08:10:45;14.93;;;6.05;;
76856;SDS011;66179;44.686;37.628;2023-02-28T08:13:12;12.98;;;6.25;;
76856;SDS011;66179;44.686;37.628;2023-02-28T08:15:40;13.13;;;6.50;;
76856;SDS011;66179;44.686;37.628;2023-02-28T08:18:08;13.85;;;6.10;;
76856;SDS011;66179;44.686;37.628;2023-02-28T08:20:36;13.63;;;5.90;;
76856;SDS011;66179;44.686;37.628;2023-02-28T08:23:03;12.57;;;6.10;;
76856;SDS011;66179;44.686;37.628;2023-02-28T08:25:29;11.30;;;5.70;;
76856;SDS011;66179;44.686;37.628;2023-02-28T08:27:56;12.00;;;5.80;;
76856;SDS011;66179;44.686;37.628;2023-02-28T08:30:23;11.70;;;5.45;;
76856;SDS011;66179;44.686;37.628;2023-02-28T08:32:50;12.20;;;5.93;;
76856;SDS011;66179;44.686;37.628;2023-02-28T08:35:17;11.35;;;5.68;;
76856;SDS011;66179;44.686;37.628;2023-02-28T08:37:43;12.82;;;5.85;;
76856;SDS011;66179;44.686;37.628;2023-02-28T08:40:10;11.60;;;5.65;;
76856;SDS011;66179;44.686;37.628;2023-02-28T08:42:44;11.88;;;6.13;;
76856;SDS011;66179;44.686;37.628;2023-02-28T08:45:12;11.40;;;5.33;;
76856;SDS011;66179;44.686;37.628;2023-02-28T08:47:40;10.95;;;5.40;;
76856;SDS011;66179;44.686;37.628;2023-02-28T08:50:07;10.63;;;5.68;;
76856;SDS011;66179;44.686;37.628;2023-02-28T08:52:34;11.88;;;5.95;;
76856;SDS011;66179;44.686;37.628;2023-02-28T08:55:01;14.43;;;6.85;;
76856;SDS011;66179;44.686;37.628;2023-02-28T08:57:28;19.20;;;7.95;;
76856;SDS011;66179;44.686;37.628;2023-02-28T08:59:55;13.23;;;6.97;;
76856;SDS011;66179;44.686;37.628;2023-02-28T09:02:21;14.38;;;7.25;;
76856;SDS011;66179;44.686;37.628;2023-02-28T09:04:48;13.95;;;6.70;;
76856;SDS011;66179;44.686;37.628;2023-02-28T09:07:15;14.73;;;6.80;;
76856;SDS011;66179;44.686;37.628;2023-02-28T09:09:41;12.70;;;5.80;;
76856;SDS011;66179;44.686;37.628;2023-02-28T09:12:23;12.05;;;6.07;;
76856;SDS011;66179;44.686;37.628;2023-02-28T09:14:50;12.63;;;6.50;;
76856;SDS011;66179;44.686;37.628;2023-02-28T09:17:17;13.05;;;5.72;;
76856;SDS011;66179;44.686;37.628;2023-02-28T09:19:45;10.70;;;5.65;;
76856;SDS011;66179;44.686;37.628;2023-02-28T09:22:14;11.13;;;5.60;;
76856;SDS011;66179;44.686;37.628;2023-02-28T09:24:41;12.90;;;5.50;;
76856;SDS011;66179;44.686;37.628;2023-02-28T09:27:10;13.07;;;5.90;;
76856;SDS011;66179;44.686;37.628;2023-02-28T09:29:37;13.73;;;5.90;;
76856;SDS011;66179;44.686;37.628;2023-02-28T09:32:04;13.25;;;6.05;;
76856;SDS011;66179;44.686;37.628;2023-02-28T09:34:33;13.48;;;6.43;;
76856;SDS011;66179;44.686;37.628;2023-02-28T09:37:02;12.82;;;6.45;;
76856;SDS011;66179;44.686;37.628;2023-02-28T09:39:29;13.65;;;6.35;;
76856;SDS011;66179;44.686;37.628;2023-02-28T09:41:56;12.82;;;6.30;;
76856;SDS011;66179;44.686;37.628;2023-02-28T09:44:36;9.52;;;5.45;;
76856;SDS011;66179;44.686;37.628;2023-02-28T09:52:56;14.43;;;6.50;;
76856;SDS011;66179;44.686;37.628;2023-02-28T09:55:30;12.38;;;5.97;;
76856;SDS011;66179;44.686;37.628;2023-02-28T09:58:01;13.57;;;6.82;;
76856;SDS011;66179;44.686;37.628;2023-02-28T10:00:30;12.52;;;6.55;;
76856;SDS011;66179;44.686;37.628;2023-02-28T10:05:37;14.02;;;5.70;;
76856;SDS011;66179;44.686;37.628;2023-02-28T10:08:29;11.35;;;6.18;;
76856;SDS011;66179;44.686;37.628;2023-02-28T10:11:02;14.13;;;6.45;;
76856;SDS011;66179;44.686;37.628;2023-02-28T10:13:34;11.25;;;6.00;;
76856;SDS011;66179;44.686;37.628;2023-02-28T10:16:14;10.90;;;5.97;;
76856;SDS011;66179;44.686;37.628;2023-02-28T10:18:46;13.45;;;5.97;;
76856;SDS011;66179;44.686;37.628;2023-02-28T10:21:21;12.45;;;6.50;;
76856;SDS011;66179;44.686;37.628;2023-02-28T10:23:57;13.77;;;6.63;;
76856;SDS011;66179;44.686;37.628;2023-02-28T10:26:29;13.95;;;5.95;;
76856;SDS011;66179;44.686;37.628;2023-02-28T10:28:58;13.82;;;6.45;;
76856;SDS011;66179;44.686;37.628;2023-02-28T10:31:24;10.07;;;5.90;;
76856;SDS011;66179;44.686;37.628;2023-02-28T10:33:51;12.15;;;6.32;;
76856;SDS011;66179;44.686;37.628;2023-02-28T10:36:18;12.77;;;5.70;;
76856;SDS011;66179;44.686;37.628;2023-02-28T10:38:49;9.88;;;5.50;;
76856;SDS011;66179;44.686;37.628;2023-02-28T10:41:26;13.63;;;6.28;;
76856;SDS011;66179;44.686;37.628;2023-02-28T10:44:12;12.63;;;7.32;;
76856;SDS011;66179;44.686;37.628;2023-02-28T10:46:49;13.60;;;6.90;;
76856;SDS011;66179;44.686;37.628;2023-02-28T10:49:17;15.13;;;6.80;;
76856;SDS011;66179;44.686;37.628;2023-02-28T10:51:54;14.70;;;6.70;;
76856;SDS011;66179;44.686;37.628;2023-02-28T10:54:30;13.15;;;6.68;;
76856;SDS011;66179;44.686;37.628;2023-02-28T11:00:05;12.70;;;6.78;;
76856;SDS011;66179;44.686;37.628;2023-02-28T11:02:44;11.95;;;6.88;;
76856;SDS011;66179;44.686;37.628;2023-02-28T11:05:31;12.70;;;7.45;;
76856;SDS011;66179;44.686;37.628;2023-02-28T11:08:06;14.05;;;7.43;;
76856;SDS011;66179;44.686;37.628;2023-02-28T11:10:39;17.42;;;7.65;;
76856;SDS011;66179;44.686;37.628;2023-02-28T11:13:20;13.88;;;7.57;;
76856;SDS011;66179;44.686;37.628;2023-02-28T11:15:54;13.38;;;7.47;;
76856;SDS011;66179;44.686;37.628;2023-02-28T11:18:29;12.82;;;7.25;;
76856;SDS011;66179;44.686;37.628;2023-02-28T11:21:01;12.43;;;7.28;;
76856;SDS011;66179;44.686;37.628;2023-02-28T11:23:29;20.48;;;9.32;;
76856;SDS011;66179;44.686;37.628;2023-02-28T11:25:59;16.98;;;7.60;;
76856;SDS011;66179;44.686;37.628;2023-02-28T11:28:28;13.35;;;6.90;;
76856;SDS011;66179;44.686;37.628;2023-02-28T11:33:45;11.88;;;6.32;;
76856;SDS011;66179;44.686;37.628;2023-02-28T11:39:03;16.50;;;9.88;;
76856;SDS011;66179;44.686;37.628;2023-02-28T11:41:52;23.35;;;13.52;;
76856;SDS011;66179;44.686;37.628;2023-02-28T11:55:39;26.23;;;17.48;;
76856;SDS011;66179;44.686;37.628;2023-02-28T11:58:27;13.48;;;7.47;;
76856;SDS011;66179;44.686;37.628;2023-02-28T12:01:09;15.13;;;8.27;;
76856;SDS011;66179;44.686;37.628;2023-02-28T12:03:58;18.60;;;11.43;;
76856;SDS011;66179;44.686;37.628;2023-02-28T12:12:14;12.68;;;6.65;;
76856;SDS011;66179;44.686;37.628;2023-02-28T12:17:53;15.80;;;7.47;;
76856;SDS011;66179;44.686;37.628;2023-02-28T12:21:01;15.43;;;7.30;;
76856;SDS011;66179;44.686;37.628;2023-02-28T12:31:53;14.10;;;6.70;;
76856;SDS011;66179;44.686;37.628;2023-02-28T12:34:33;14.27;;;6.05;;
76856;SDS011;66179;44.686;37.628;2023-02-28T12:37:06;11.57;;;6.25;;
76856;SDS011;66179;44.686;37.628;2023-02-28T12:39:38;13.30;;;6.10;;
76856;SDS011;66179;44.686;37.628;2023-02-28T12:42:10;11.88;;;6.00;;
76856;SDS011;66179;44.686;37.628;2023-02-28T12:44:56;11.82;;;5.78;;
76856;SDS011;66179;44.686;37.628;2023-02-28T12:47:30;12.18;;;5.20;;
76856;SDS011;66179;44.686;37.628;2023-02-28T12:50:07;11.20;;;5.40;;
76856;SDS011;66179;44.686;37.628;2023-02-28T12:53:02;9.77;;;4.43;;
76856;SDS011;66179;44.686;37.628;2023-02-28T12:58:30;16.13;;;6.38;;
76856;SDS011;66179;44.686;37.628;2023-02-28T13:09:14;15.98;;;6.47;;
76856;SDS011;66179;44.686;37.628;2023-02-28T13:14:22;14.35;;;7.50;;
76856;SDS011;66179;44.686;37.628;2023-02-28T13:28:00;18.35;;;8.63;;
76856;SDS011;66179;44.686;37.628;2023-02-28T13:38:48;24.80;;;10.55;;
76856;SDS011;66179;44.686;37.628;2023-02-28T13:47:15;21.33;;;10.50;;
76856;SDS011;66179;44.686;37.628;2023-02-28T13:49:27;25.92;;;13.63;;
76856;SDS011;66179;44.686;37.628;2023-02-28T13:52:06;31.88;;;18.98;;
76856;SDS011;66179;44.686;37.628;2023-02-28T14:06:30;21.02;;;9.60;;
76856;SDS011;66179;44.686;37.628;2023-02-28T14:09:04;23.55;;;11.00;;
76856;SDS011;66179;44.686;37.628;2023-02-28T14:11:44;21.90;;;11.25;;
76856;SDS011;66179;44.686;37.628;2023-02-28T14:17:17;21.38;;;10.82;;
76856;SDS011;66179;44.686;37.628;2023-02-28T14:19:45;25.73;;;12.05;;
76856;SDS011;66179;44.686;37.628;2023-02-28T14:27:42;21.97;;;10.90;;
76856;SDS011;66179;44.686;37.628;2023-02-28T14:30:18;26.30;;;11.88;;
76856;SDS011;66179;44.686;37.628;2023-02-28T14:33:09;31.13;;;15.30;;
76856;SDS011;66179;44.686;37.628;2023-02-28T14:38:28;36.17;;;17.67;;
76856;SDS011;66179;44.686;37.628;2023-02-28T14:40:58;37.50;;;18.93;;
76856;SDS011;66179;44.686;37.628;2023-02-28T14:43:28;30.48;;;16.50;;
76856;SDS011;66179;44.686;37.628;2023-02-28T14:45:56;29.88;;;17.60;;
76856;SDS011;66179;44.686;37.628;2023-02-28T14:48:25;26.65;;;16.13;;
76856;SDS011;66179;44.686;37.628;2023-02-28T14:50:57;27.65;;;14.25;;
76856;SDS011;66179;44.686;37.628;2023-02-28T14:53:29;24.33;;;11.60;;
76856;SDS011;66179;44.686;37.628;2023-02-28T14:56:01;23.67;;;12.00;;
76856;SDS011;66179;44.686;37.628;2023-02-28T14:58:30;24.52;;;11.25;;
76856;SDS011;66179;44.686;37.628;2023-02-28T15:00:59;26.88;;;12.18;;
76856;SDS011;66179;44.686;37.628;2023-02-28T15:03:35;23.92;;;10.77;;
76856;SDS011;66179;44.686;37.628;2023-02-28T15:06:16;24.47;;;11.60;;
76856;SDS011;66179;44.686;37.628;2023-02-28T15:08:44;25.65;;;11.15;;
76856;SDS011;66179;44.686;37.628;2023-02-28T15:11:13;26.63;;;11.40;;
76856;SDS011;66179;44.686;37.628;2023-02-28T15:13:52;27.77;;;10.18;;
76856;SDS011;66179;44.686;37.628;2023-02-28T15:16:28;23.67;;;10.77;;
76856;SDS011;66179;44.686;37.628;2023-02-28T15:19:03;18.73;;;8.53;;
76856;SDS011;66179;44.686;37.628;2023-02-28T15:21:34;26.27;;;11.07;;
76856;SDS011;66179;44.686;37.628;2023-02-28T15:24:04;25.25;;;10.73;;
76856;SDS011;66179;44.686;37.628;2023-02-28T15:26:42;21.25;;;9.43;;
76856;SDS011;66179;44.686;37.628;2023-02-28T15:29:13;21.20;;;9.13;;
76856;SDS011;66179;44.686;37.628;2023-02-28T15:31:44;22.47;;;9.43;;
76856;SDS011;66179;44.686;37.628;2023-02-28T15:34:18;18.58;;;8.45;;
76856;SDS011;66179;44.686;37.628;2023-02-28T15:36:53;19.48;;;9.27;;
76856;SDS011;66179;44.686;37.628;2023-02-28T15:39:26;17.65;;;8.75;;
76856;SDS011;66179;44.686;37.628;2023-02-28T15:44:57;13.60;;;6.20;;
76856;SDS011;66179;44.686;37.628;2023-02-28T15:47:26;11.82;;;5.45;;
76856;SDS011;66179;44.686;37.628;2023-02-28T15:50:00;14.65;;;5.00;;
76856;SDS011;66179;44.686;37.628;2023-02-28T15:52:39;13.10;;;5.40;;
76856;SDS011;66179;44.686;37.628;2023-02-28T15:57:46;14.50;;;5.40;;
76856;SDS011;66179;44.686;37.628;2023-02-28T16:00:19;13.85;;;6.45;;
76856;SDS011;66179;44.686;37.628;2023-02-28T16:02:47;12.88;;;6.00;;
76856;SDS011;66179;44.686;37.628;2023-02-28T16:05:22;13.60;;;7.28;;
76856;SDS011;66179;44.686;37.628;2023-02-28T16:07:58;11.07;;;4.55;;
76856;SDS011;66179;44.686;37.628;2023-02-28T16:10:28;12.20;;;4.17;;
76856;SDS011;66179;44.686;37.628;2023-02-28T16:12:55;12.75;;;6.25;;
76856;SDS011;66179;44.686;37.628;2023-02-28T16:15:27;15.80;;;7.32;;
76856;SDS011;66179;44.686;37.628;2023-02-28T16:17:57;15.40;;;6.85;;
76856;SDS011;66179;44.686;37.628;2023-02-28T16:22:52;13.67;;;6.00;;
76856;SDS011;66179;44.686;37.628;2023-02-28T16:25:21;14.07;;;5.82;;
76856;SDS011;66179;44.686;37.628;2023-02-28T16:27:52;15.30;;;6.18;;
76856;SDS011;66179;44.686;37.628;2023-02-28T16:30:26;12.40;;;5.63;;
76856;SDS011;66179;44.686;37.628;2023-02-28T16:32:57;13.45;;;5.63;;
76856;SDS011;66179;44.686;37.628;2023-02-28T16:35:24;13.07;;;5.50;;
76856;SDS011;66179;44.686;37.628;2023-02-28T16:37:51;13.20;;;5.63;;
76856;SDS011;66179;44.686;37.628;2023-02-28T16:40:20;12.02;;;4.60;;
76856;SDS011;66179;44.686;37.628;2023-02-28T16:42:49;13.70;;;5.70;;
76856;SDS011;66179;44.686;37.628;2023-02-28T16:45:20;11.95;;;5.18;;
76856;SDS011;66179;44.686;37.628;2023-02-28T16:47:49;14.73;;;5.57;;
76856;SDS011;66179;44.686;37.628;2023-02-28T16:50:23;11.93;;;4.95;;
76856;SDS011;66179;44.686;37.628;2023-02-28T16:52:53;12.48;;;5.70;;
76856;SDS011;66179;44.686;37.628;2023-02-28T16:55:21;14.02;;;5.57;;
76856;SDS011;66179;44.686;37.628;2023-02-28T16:57:53;13.90;;;5.65;;
76856;SDS011;66179;44.686;37.628;2023-02-28T17:00:22;15.50;;;5.90;;